sensor_id;sensor_type;location;lat;lon;timestamp;P1;durP1;ratioP1;P2;durP2;ratioP2
37791;SDS011;29527;55.766;37.570;2023-05-07T00:01:42;11.75;;;4.45;;
37791;SDS011;29527;55.766;37.570;2023-05-07T00:04:08;5.75;;;4.18;;
37791;SDS011;29527;55.766;37.570;2023-05-07T00:06:33;6.32;;;3.85;;
37791;SDS011;29527;55.766;37.570;2023-05-07T00:08:59;5.93;;;4.30;;
37791;SDS011;29527;55.766;37.570;2023-05-07T00:11:26;6.35;;;4.00;;
37791;SDS011;29527;55.766;37.570;2023-05-07T00:13:52;8.88;;;4.32;;
37791;SDS011;29527;55.766;37.570;2023-05-07T00:16:17;7.03;;;3.95;;
37791;SDS011;29527;55.766;37.570;2023-05-07T00:18:43;7.68;;;4.18;;
37791;SDS011;29527;55.766;37.570;2023-05-07T00:21:09;10.20;;;4.05;;
37791;SDS011;29527;55.766;37.570;2023-05-07T00:23:34;6.57;;;4.30;;
37791;SDS011;29527;55.766;37.570;2023-05-07T00:26:00;6.63;;;4.00;;
37791;SDS011;29527;55.766;37.570;2023-05-07T00:28:25;6.18;;;4.13;;
37791;SDS011;29527;55.766;37.570;2023-05-07T00:30:51;7.82;;;4.45;;
37791;SDS011;29527;55.766;37.570;2023-05-07T00:33:16;7.88;;;4.10;;
37791;SDS011;29527;55.766;37.570;2023-05-07T00:35:42;8.30;;;4.20;;
37791;SDS011;29527;55.766;37.570;2023-05-07T00:38:08;8.23;;;3.83;;
37791;SDS011;29527;55.766;37.570;2023-05-07T00:40:34;6.13;;;4.20;;
37791;SDS011;29527;55.766;37.570;2023-05-07T00:42:59;11.38;;;4.32;;
37791;SDS011;29527;55.766;37.570;2023-05-07T00:45:28;8.02;;;4.30;;
37791;SDS011;29527;55.766;37.570;2023-05-07T00:47:57;6.18;;;3.85;;
37791;SDS011;29527;55.766;37.570;2023-05-07T00:50:27;5.35;;;4.40;;
37791;SDS011;29527;55.766;37.570;2023-05-07T00:52:53;11.38;;;4.53;;
37791;SDS011;29527;55.766;37.570;2023-05-07T00:55:20;8.32;;;4.15;;
37791;SDS011;29527;55.766;37.570;2023-05-07T00:57:46;10.57;;;4.45;;
37791;SDS011;29527;55.766;37.570;2023-05-07T01:00:12;6.63;;;4.40;;
37791;SDS011;29527;55.766;37.570;2023-05-07T01:02:38;6.28;;;3.95;;
37791;SDS011;29527;55.766;37.570;2023-05-07T01:05:04;7.97;;;4.25;;
37791;SDS011;29527;55.766;37.570;2023-05-07T01:07:33;6.43;;;4.38;;
37791;SDS011;29527;55.766;37.570;2023-05-07T01:09:59;7.72;;;4.68;;
37791;SDS011;29527;55.766;37.570;2023-05-07T01:12:26;10.48;;;4.32;;
37791;SDS011;29527;55.766;37.570;2023-05-07T01:14:53;6.78;;;4.22;;
37791;SDS011;29527;55.766;37.570;2023-05-07T01:17:18;7.97;;;4.72;;
37791;SDS011;29527;55.766;37.570;2023-05-07T01:19:44;6.82;;;4.45;;
37791;SDS011;29527;55.766;37.570;2023-05-07T01:22:10;7.45;;;4.72;;
37791;SDS011;29527;55.766;37.570;2023-05-07T01:24:37;7.65;;;4.60;;
37791;SDS011;29527;55.766;37.570;2023-05-07T01:27:03;8.93;;;3.95;;
37791;SDS011;29527;55.766;37.570;2023-05-07T01:29:29;5.13;;;4.22;;
37791;SDS011;29527;55.766;37.570;2023-05-07T01:31:58;6.47;;;4.07;;
37791;SDS011;29527;55.766;37.570;2023-05-07T01:34:26;10.48;;;4.40;;
37791;SDS011;29527;55.766;37.570;2023-05-07T01:36:54;6.25;;;4.68;;
37791;SDS011;29527;55.766;37.570;2023-05-07T01:39:22;8.85;;;4.70;;
37791;SDS011;29527;55.766;37.570;2023-05-07T01:41:49;6.53;;;4.15;;
37791;SDS011;29527;55.766;37.570;2023-05-07T01:44:15;7.18;;;4.63;;
37791;SDS011;29527;55.766;37.570;2023-05-07T01:46:43;8.02;;;4.05;;
37791;SDS011;29527;55.766;37.570;2023-05-07T01:49:08;8.40;;;4.43;;
37791;SDS011;29527;55.766;37.570;2023-05-07T01:51:34;8.10;;;4.30;;
37791;SDS011;29527;55.766;37.570;2023-05-07T01:54:01;13.20;;;4.60;;
37791;SDS011;29527;55.766;37.570;2023-05-07T01:56:26;9.18;;;4.80;;
37791;SDS011;29527;55.766;37.570;2023-05-07T01:58:52;7.75;;;4.93;;
37791;SDS011;29527;55.766;37.570;2023-05-07T02:01:17;8.70;;;4.88;;
37791;SDS011;29527;55.766;37.570;2023-05-07T02:03:43;7.68;;;5.13;;
37791;SDS011;29527;55.766;37.570;2023-05-07T02:06:09;12.10;;;6.30;;
37791;SDS011;29527;55.766;37.570;2023-05-07T02:08:35;11.40;;;5.90;;
37791;SDS011;29527;55.766;37.570;2023-05-07T02:11:01;7.72;;;5.25;;
37791;SDS011;29527;55.766;37.570;2023-05-07T02:13:31;6.88;;;5.07;;
37791;SDS011;29527;55.766;37.570;2023-05-07T02:15:58;7.68;;;5.07;;
37791;SDS011;29527;55.766;37.570;2023-05-07T02:18:23;13.75;;;5.55;;
37791;SDS011;29527;55.766;37.570;2023-05-07T02:20:49;6.95;;;4.72;;
37791;SDS011;29527;55.766;37.570;2023-05-07T02:23:17;9.07;;;5.00;;
37791;SDS011;29527;55.766;37.570;2023-05-07T02:25:42;8.82;;;5.30;;
37791;SDS011;29527;55.766;37.570;2023-05-07T02:28:08;7.90;;;5.68;;
37791;SDS011;29527;55.766;37.570;2023-05-07T02:30:33;13.93;;;6.13;;
37791;SDS011;29527;55.766;37.570;2023-05-07T02:32:59;9.38;;;6.07;;
37791;SDS011;29527;55.766;37.570;2023-05-07T02:35:24;12.57;;;6.00;;
37791;SDS011;29527;55.766;37.570;2023-05-07T02:37:51;11.10;;;6.43;;
37791;SDS011;29527;55.766;37.570;2023-05-07T02:40:16;9.85;;;5.85;;
37791;SDS011;29527;55.766;37.570;2023-05-07T02:42:42;11.50;;;6.13;;
37791;SDS011;29527;55.766;37.570;2023-05-07T02:45:07;11.15;;;6.45;;
37791;SDS011;29527;55.766;37.570;2023-05-07T02:47:34;9.40;;;6.32;;
37791;SDS011;29527;55.766;37.570;2023-05-07T02:49:59;14.82;;;6.10;;
37791;SDS011;29527;55.766;37.570;2023-05-07T02:52:25;15.38;;;6.95;;
37791;SDS011;29527;55.766;37.570;2023-05-07T02:54:50;11.90;;;7.10;;
37791;SDS011;29527;55.766;37.570;2023-05-07T02:57:16;13.05;;;7.50;;
37791;SDS011;29527;55.766;37.570;2023-05-07T02:59:41;11.35;;;6.90;;
37791;SDS011;29527;55.766;37.570;2023-05-07T03:02:07;12.15;;;7.50;;
37791;SDS011;29527;55.766;37.570;2023-05-07T03:04:33;13.00;;;6.82;;
37791;SDS011;29527;55.766;37.570;2023-05-07T03:06:58;15.65;;;7.10;;
37791;SDS011;29527;55.766;37.570;2023-05-07T03:09:24;10.57;;;6.93;;
37791;SDS011;29527;55.766;37.570;2023-05-07T03:11:49;11.60;;;6.95;;
37791;SDS011;29527;55.766;37.570;2023-05-07T03:14:15;10.93;;;6.60;;
37791;SDS011;29527;55.766;37.570;2023-05-07T03:16:40;11.25;;;7.20;;
37791;SDS011;29527;55.766;37.570;2023-05-07T03:19:06;10.15;;;6.28;;
37791;SDS011;29527;55.766;37.570;2023-05-07T03:21:31;9.75;;;6.57;;
37791;SDS011;29527;55.766;37.570;2023-05-07T03:24:00;9.85;;;6.05;;
37791;SDS011;29527;55.766;37.570;2023-05-07T03:26:25;9.63;;;6.15;;
37791;SDS011;29527;55.766;37.570;2023-05-07T03:28:51;7.65;;;5.43;;
37791;SDS011;29527;55.766;37.570;2023-05-07T03:31:17;6.90;;;5.05;;
37791;SDS011;29527;55.766;37.570;2023-05-07T03:33:56;6.47;;;5.30;;
37791;SDS011;29527;55.766;37.570;2023-05-07T03:36:22;7.85;;;5.53;;
37791;SDS011;29527;55.766;37.570;2023-05-07T03:38:48;9.23;;;5.57;;
37791;SDS011;29527;55.766;37.570;2023-05-07T03:41:15;10.70;;;5.43;;
37791;SDS011;29527;55.766;37.570;2023-05-07T03:43:41;5.97;;;4.40;;
37791;SDS011;29527;55.766;37.570;2023-05-07T03:46:06;8.07;;;4.70;;
37791;SDS011;29527;55.766;37.570;2023-05-07T03:48:32;7.95;;;4.40;;
37791;SDS011;29527;55.766;37.570;2023-05-07T03:50:58;6.50;;;4.07;;
37791;SDS011;29527;55.766;37.570;2023-05-07T03:53:23;7.78;;;4.18;;
37791;SDS011;29527;55.766;37.570;2023-05-07T03:55:49;5.00;;;3.72;;
37791;SDS011;29527;55.766;37.570;2023-05-07T03:58:15;4.60;;;3.60;;
37791;SDS011;29527;55.766;37.570;2023-05-07T04:00:41;5.07;;;3.72;;
37791;SDS011;29527;55.766;37.570;2023-05-07T04:03:06;3.90;;;3.28;;
37791;SDS011;29527;55.766;37.570;2023-05-07T04:05:32;6.18;;;3.60;;
37791;SDS011;29527;55.766;37.570;2023-05-07T04:07:59;4.32;;;3.42;;
37791;SDS011;29527;55.766;37.570;2023-05-07T04:10:26;4.40;;;3.53;;
37791;SDS011;29527;55.766;37.570;2023-05-07T04:12:53;7.80;;;3.40;;
37791;SDS011;29527;55.766;37.570;2023-05-07T04:15:19;4.90;;;3.50;;
37791;SDS011;29527;55.766;37.570;2023-05-07T04:17:45;6.60;;;3.60;;
37791;SDS011;29527;55.766;37.570;2023-05-07T04:20:13;6.35;;;4.07;;
37791;SDS011;29527;55.766;37.570;2023-05-07T04:22:40;6.20;;;3.60;;
37791;SDS011;29527;55.766;37.570;2023-05-07T04:25:06;4.38;;;3.33;;
37791;SDS011;29527;55.766;37.570;2023-05-07T04:27:33;4.65;;;3.08;;
37791;SDS011;29527;55.766;37.570;2023-05-07T04:29:58;5.75;;;3.42;;
37791;SDS011;29527;55.766;37.570;2023-05-07T04:32:26;4.95;;;3.47;;
37791;SDS011;29527;55.766;37.570;2023-05-07T04:34:51;5.05;;;3.47;;
37791;SDS011;29527;55.766;37.570;2023-05-07T04:37:17;10.75;;;3.33;;
37791;SDS011;29527;55.766;37.570;2023-05-07T04:39:43;4.78;;;3.20;;
37791;SDS011;29527;55.766;37.570;2023-05-07T04:42:08;3.47;;;3.15;;
37791;SDS011;29527;55.766;37.570;2023-05-07T04:44:35;6.93;;;3.10;;
37791;SDS011;29527;55.766;37.570;2023-05-07T04:47:02;4.15;;;3.15;;
37791;SDS011;29527;55.766;37.570;2023-05-07T04:49:27;5.18;;;3.28;;
37791;SDS011;29527;55.766;37.570;2023-05-07T04:51:53;5.15;;;2.85;;
37791;SDS011;29527;55.766;37.570;2023-05-07T04:54:18;5.22;;;3.08;;
37791;SDS011;29527;55.766;37.570;2023-05-07T04:56:44;5.45;;;3.00;;
37791;SDS011;29527;55.766;37.570;2023-05-07T04:59:09;5.45;;;3.10;;
37791;SDS011;29527;55.766;37.570;2023-05-07T05:01:35;5.53;;;2.90;;
37791;SDS011;29527;55.766;37.570;2023-05-07T05:04:00;3.88;;;2.97;;
37791;SDS011;29527;55.766;37.570;2023-05-07T05:06:26;4.07;;;2.80;;
37791;SDS011;29527;55.766;37.570;2023-05-07T05:08:52;2.85;;;2.47;;
37791;SDS011;29527;55.766;37.570;2023-05-07T05:11:17;2.33;;;2.08;;
37791;SDS011;29527;55.766;37.570;2023-05-07T05:13:43;3.83;;;2.10;;
37791;SDS011;29527;55.766;37.570;2023-05-07T05:16:08;4.72;;;2.05;;
37791;SDS011;29527;55.766;37.570;2023-05-07T05:18:34;3.25;;;1.83;;
37791;SDS011;29527;55.766;37.570;2023-05-07T05:21:00;3.47;;;1.60;;
37791;SDS011;29527;55.766;37.570;2023-05-07T05:23:25;4.60;;;1.90;;
37791;SDS011;29527;55.766;37.570;2023-05-07T05:25:55;2.13;;;1.83;;
37791;SDS011;29527;55.766;37.570;2023-05-07T05:28:22;1.92;;;1.80;;
37791;SDS011;29527;55.766;37.570;2023-05-07T05:30:48;1.80;;;1.70;;
37791;SDS011;29527;55.766;37.570;2023-05-07T05:33:14;3.03;;;2.13;;
37791;SDS011;29527;55.766;37.570;2023-05-07T05:35:40;2.45;;;1.60;;
37791;SDS011;29527;55.766;37.570;2023-05-07T05:38:05;2.65;;;1.90;;
37791;SDS011;29527;55.766;37.570;2023-05-07T05:40:30;2.33;;;1.48;;
37791;SDS011;29527;55.766;37.570;2023-05-07T05:42:57;1.85;;;1.50;;
37791;SDS011;29527;55.766;37.570;2023-05-07T05:45:22;2.20;;;1.33;;
37791;SDS011;29527;55.766;37.570;2023-05-07T05:47:48;1.83;;;1.40;;
37791;SDS011;29527;55.766;37.570;2023-05-07T05:50:13;1.95;;;1.45;;
37791;SDS011;29527;55.766;37.570;2023-05-07T05:52:39;2.45;;;1.40;;
37791;SDS011;29527;55.766;37.570;2023-05-07T05:55:06;4.28;;;1.75;;
37791;SDS011;29527;55.766;37.570;2023-05-07T05:57:32;1.98;;;1.17;;
37791;SDS011;29527;55.766;37.570;2023-05-07T05:59:57;2.75;;;1.60;;
37791;SDS011;29527;55.766;37.570;2023-05-07T06:02:23;2.30;;;1.20;;
37791;SDS011;29527;55.766;37.570;2023-05-07T06:04:48;2.80;;;1.90;;
37791;SDS011;29527;55.766;37.570;2023-05-07T06:07:14;1.85;;;1.63;;
37791;SDS011;29527;55.766;37.570;2023-05-07T06:09:40;7.30;;;1.80;;
37791;SDS011;29527;55.766;37.570;2023-05-07T06:12:05;3.95;;;1.85;;
37791;SDS011;29527;55.766;37.570;2023-05-07T06:14:31;3.47;;;1.80;;
37791;SDS011;29527;55.766;37.570;2023-05-07T06:16:57;3.28;;;1.92;;
37791;SDS011;29527;55.766;37.570;2023-05-07T06:19:22;4.95;;;1.83;;
37791;SDS011;29527;55.766;37.570;2023-05-07T06:21:49;4.07;;;2.10;;
37791;SDS011;29527;55.766;37.570;2023-05-07T06:24:15;6.18;;;1.92;;
37791;SDS011;29527;55.766;37.570;2023-05-07T06:26:40;3.50;;;1.80;;
37791;SDS011;29527;55.766;37.570;2023-05-07T06:29:06;3.88;;;1.80;;
37791;SDS011;29527;55.766;37.570;2023-05-07T06:31:31;2.40;;;1.60;;
37791;SDS011;29527;55.766;37.570;2023-05-07T06:33:57;1.67;;;1.50;;
37791;SDS011;29527;55.766;37.570;2023-05-07T06:36:23;4.43;;;1.33;;
37791;SDS011;29527;55.766;37.570;2023-05-07T06:38:48;2.58;;;1.40;;
37791;SDS011;29527;55.766;37.570;2023-05-07T06:41:14;2.85;;;1.65;;
37791;SDS011;29527;55.766;37.570;2023-05-07T06:43:39;1.77;;;1.60;;
37791;SDS011;29527;55.766;37.570;2023-05-07T06:46:05;2.00;;;1.67;;
37791;SDS011;29527;55.766;37.570;2023-05-07T06:48:30;3.92;;;1.60;;
37791;SDS011;29527;55.766;37.570;2023-05-07T06:50:56;1.67;;;1.40;;
37791;SDS011;29527;55.766;37.570;2023-05-07T06:53:23;2.08;;;1.65;;
37791;SDS011;29527;55.766;37.570;2023-05-07T06:55:49;3.60;;;1.80;;
37791;SDS011;29527;55.766;37.570;2023-05-07T06:58:14;1.40;;;1.30;;
37791;SDS011;29527;55.766;37.570;2023-05-07T07:00:40;2.10;;;1.10;;
37791;SDS011;29527;55.766;37.570;2023-05-07T07:03:06;4.75;;;1.65;;
37791;SDS011;29527;55.766;37.570;2023-05-07T07:05:32;1.63;;;1.30;;
37791;SDS011;29527;55.766;37.570;2023-05-07T07:07:57;3.92;;;1.67;;
37791;SDS011;29527;55.766;37.570;2023-05-07T07:10:23;4.60;;;1.40;;
37791;SDS011;29527;55.766;37.570;2023-05-07T07:12:49;2.40;;;1.63;;
37791;SDS011;29527;55.766;37.570;2023-05-07T07:15:15;4.75;;;1.20;;
37791;SDS011;29527;55.766;37.570;2023-05-07T07:17:41;1.30;;;1.20;;
37791;SDS011;29527;55.766;37.570;2023-05-07T07:20:06;3.40;;;1.17;;
37791;SDS011;29527;55.766;37.570;2023-05-07T07:22:33;1.85;;;1.20;;
37791;SDS011;29527;55.766;37.570;2023-05-07T07:24:58;3.65;;;1.40;;
37791;SDS011;29527;55.766;37.570;2023-05-07T07:27:24;2.63;;;1.40;;
37791;SDS011;29527;55.766;37.570;2023-05-07T07:29:49;2.55;;;1.70;;
37791;SDS011;29527;55.766;37.570;2023-05-07T07:32:15;2.80;;;1.70;;
37791;SDS011;29527;55.766;37.570;2023-05-07T07:34:40;3.20;;;1.42;;
37791;SDS011;29527;55.766;37.570;2023-05-07T07:37:06;3.92;;;1.52;;
37791;SDS011;29527;55.766;37.570;2023-05-07T07:39:32;2.22;;;1.38;;
37791;SDS011;29527;55.766;37.570;2023-05-07T07:41:58;4.20;;;1.17;;
37791;SDS011;29527;55.766;37.570;2023-05-07T07:44:24;1.67;;;0.88;;
37791;SDS011;29527;55.766;37.570;2023-05-07T07:46:50;2.70;;;0.90;;
37791;SDS011;29527;55.766;37.570;2023-05-07T07:49:16;1.55;;;0.88;;
37791;SDS011;29527;55.766;37.570;2023-05-07T07:51:41;1.70;;;1.02;;
37791;SDS011;29527;55.766;37.570;2023-05-07T07:54:07;4.32;;;1.00;;
37791;SDS011;29527;55.766;37.570;2023-05-07T07:56:33;1.23;;;0.90;;
37791;SDS011;29527;55.766;37.570;2023-05-07T07:58:59;4.57;;;0.98;;
37791;SDS011;29527;55.766;37.570;2023-05-07T08:01:24;3.75;;;1.30;;
37791;SDS011;29527;55.766;37.570;2023-05-07T08:03:51;4.10;;;0.90;;
37791;SDS011;29527;55.766;37.570;2023-05-07T08:06:16;2.28;;;0.85;;
37791;SDS011;29527;55.766;37.570;2023-05-07T08:08:42;2.75;;;1.00;;
37791;SDS011;29527;55.766;37.570;2023-05-07T08:11:08;6.32;;;1.70;;
37791;SDS011;29527;55.766;37.570;2023-05-07T08:13:34;2.10;;;1.05;;
37791;SDS011;29527;55.766;37.570;2023-05-07T08:16:00;3.15;;;1.30;;
37791;SDS011;29527;55.766;37.570;2023-05-07T08:18:25;3.28;;;1.25;;
37791;SDS011;29527;55.766;37.570;2023-05-07T08:20:53;2.35;;;1.23;;
37791;SDS011;29527;55.766;37.570;2023-05-07T08:23:19;3.33;;;1.33;;
37791;SDS011;29527;55.766;37.570;2023-05-07T08:25:44;1.73;;;1.15;;
37791;SDS011;29527;55.766;37.570;2023-05-07T08:28:10;1.83;;;1.20;;
37791;SDS011;29527;55.766;37.570;2023-05-07T08:30:35;8.00;;;1.40;;
37791;SDS011;29527;55.766;37.570;2023-05-07T08:33:01;3.15;;;1.30;;
37791;SDS011;29527;55.766;37.570;2023-05-07T08:35:27;4.20;;;1.25;;
37791;SDS011;29527;55.766;37.570;2023-05-07T08:37:53;3.55;;;1.10;;
37791;SDS011;29527;55.766;37.570;2023-05-07T08:40:19;3.15;;;1.50;;
37791;SDS011;29527;55.766;37.570;2023-05-07T08:42:48;1.92;;;1.08;;
37791;SDS011;29527;55.766;37.570;2023-05-07T08:45:15;2.85;;;1.17;;
37791;SDS011;29527;55.766;37.570;2023-05-07T08:47:43;6.80;;;1.70;;
37791;SDS011;29527;55.766;37.570;2023-05-07T08:50:10;5.10;;;1.52;;
37791;SDS011;29527;55.766;37.570;2023-05-07T08:52:36;1.85;;;1.50;;
37791;SDS011;29527;55.766;37.570;2023-05-07T08:55:02;3.92;;;1.60;;
37791;SDS011;29527;55.766;37.570;2023-05-07T08:57:29;3.15;;;1.48;;
37791;SDS011;29527;55.766;37.570;2023-05-07T08:59:55;3.40;;;1.30;;
37791;SDS011;29527;55.766;37.570;2023-05-07T09:02:20;6.13;;;1.30;;
37791;SDS011;29527;55.766;37.570;2023-05-07T09:04:46;5.55;;;1.60;;
37791;SDS011;29527;55.766;37.570;2023-05-07T09:07:11;5.47;;;1.30;;
37791;SDS011;29527;55.766;37.570;2023-05-07T09:09:37;2.90;;;1.38;;
37791;SDS011;29527;55.766;37.570;2023-05-07T09:12:02;3.20;;;1.23;;
37791;SDS011;29527;55.766;37.570;2023-05-07T09:14:29;6.82;;;1.48;;
37791;SDS011;29527;55.766;37.570;2023-05-07T09:16:55;5.50;;;1.30;;
37791;SDS011;29527;55.766;37.570;2023-05-07T09:19:22;4.85;;;1.50;;
37791;SDS011;29527;55.766;37.570;2023-05-07T09:22:04;2.65;;;1.38;;
37791;SDS011;29527;55.766;37.570;2023-05-07T09:24:32;2.88;;;1.65;;
37791;SDS011;29527;55.766;37.570;2023-05-07T09:27:03;5.88;;;1.83;;
37791;SDS011;29527;55.766;37.570;2023-05-07T09:29:29;3.67;;;1.23;;
37791;SDS011;29527;55.766;37.570;2023-05-07T09:32:03;5.07;;;1.40;;
37791;SDS011;29527;55.766;37.570;2023-05-07T09:34:30;3.55;;;1.20;;
37791;SDS011;29527;55.766;37.570;2023-05-07T09:36:57;1.65;;;1.10;;
37791;SDS011;29527;55.766;37.570;2023-05-07T09:39:25;1.17;;;1.00;;
37791;SDS011;29527;55.766;37.570;2023-05-07T09:41:51;1.92;;;1.30;;
37791;SDS011;29527;55.766;37.570;2023-05-07T09:44:19;1.20;;;1.10;;
37791;SDS011;29527;55.766;37.570;2023-05-07T09:46:45;2.20;;;1.10;;
37791;SDS011;29527;55.766;37.570;2023-05-07T09:49:20;8.27;;;1.50;;
37791;SDS011;29527;55.766;37.570;2023-05-07T09:51:48;1.55;;;1.25;;
37791;SDS011;29527;55.766;37.570;2023-05-07T09:54:15;2.17;;;1.45;;
37791;SDS011;29527;55.766;37.570;2023-05-07T09:56:42;6.78;;;1.33;;
37791;SDS011;29527;55.766;37.570;2023-05-07T09:59:13;5.32;;;1.33;;
37791;SDS011;29527;55.766;37.570;2023-05-07T10:01:43;1.42;;;1.27;;
37791;SDS011;29527;55.766;37.570;2023-05-07T10:04:10;3.38;;;1.17;;
37791;SDS011;29527;55.766;37.570;2023-05-07T10:06:37;1.48;;;1.30;;
37791;SDS011;29527;55.766;37.570;2023-05-07T10:09:03;3.88;;;1.30;;
37791;SDS011;29527;55.766;37.570;2023-05-07T10:11:33;2.58;;;1.70;;
37791;SDS011;29527;55.766;37.570;2023-05-07T10:13:59;4.00;;;1.50;;
37791;SDS011;29527;55.766;37.570;2023-05-07T10:16:34;2.60;;;1.23;;
37791;SDS011;29527;55.766;37.570;2023-05-07T10:19:04;1.80;;;1.20;;
37791;SDS011;29527;55.766;37.570;2023-05-07T10:21:38;3.95;;;1.35;;
37791;SDS011;29527;55.766;37.570;2023-05-07T10:24:12;2.20;;;1.40;;
37791;SDS011;29527;55.766;37.570;2023-05-07T10:26:47;3.25;;;1.40;;
37791;SDS011;29527;55.766;37.570;2023-05-07T10:29:17;2.97;;;1.45;;
37791;SDS011;29527;55.766;37.570;2023-05-07T10:31:52;1.33;;;1.20;;
37791;SDS011;29527;55.766;37.570;2023-05-07T10:34:39;5.80;;;1.55;;
37791;SDS011;29527;55.766;37.570;2023-05-07T10:37:08;2.45;;;1.30;;
37791;SDS011;29527;55.766;37.570;2023-05-07T10:39:35;2.10;;;1.15;;
37791;SDS011;29527;55.766;37.570;2023-05-07T10:42:10;2.53;;;1.30;;
37791;SDS011;29527;55.766;37.570;2023-05-07T10:44:37;6.53;;;1.33;;
37791;SDS011;29527;55.766;37.570;2023-05-07T10:47:03;2.33;;;1.10;;
37791;SDS011;29527;55.766;37.570;2023-05-07T10:52:18;5.70;;;1.55;;
37791;SDS011;29527;55.766;37.570;2023-05-07T10:54:46;4.32;;;1.38;;
37791;SDS011;29527;55.766;37.570;2023-05-07T10:59:56;4.63;;;1.40;;
37791;SDS011;29527;55.766;37.570;2023-05-07T11:02:21;1.63;;;1.23;;
37791;SDS011;29527;55.766;37.570;2023-05-07T11:07:45;2.80;;;1.30;;
37791;SDS011;29527;55.766;37.570;2023-05-07T11:10:49;4.07;;;1.55;;
37791;SDS011;29527;55.766;37.570;2023-05-07T11:13:15;3.10;;;1.58;;
37791;SDS011;29527;55.766;37.570;2023-05-07T11:15:42;4.95;;;1.42;;
37791;SDS011;29527;55.766;37.570;2023-05-07T11:18:15;3.42;;;1.80;;
37791;SDS011;29527;55.766;37.570;2023-05-07T11:20:52;3.40;;;1.30;;
37791;SDS011;29527;55.766;37.570;2023-05-07T11:26:03;10.52;;;2.08;;
37791;SDS011;29527;55.766;37.570;2023-05-07T11:28:31;4.38;;;2.10;;
37791;SDS011;29527;55.766;37.570;2023-05-07T11:31:02;2.33;;;1.55;;
37791;SDS011;29527;55.766;37.570;2023-05-07T11:33:28;6.05;;;1.60;;
37791;SDS011;29527;55.766;37.570;2023-05-07T11:35:55;7.03;;;1.90;;
37791;SDS011;29527;55.766;37.570;2023-05-07T11:38:21;3.80;;;1.90;;
37791;SDS011;29527;55.766;37.570;2023-05-07T11:40:53;9.98;;;2.10;;
37791;SDS011;29527;55.766;37.570;2023-05-07T11:43:20;5.20;;;2.03;;
37791;SDS011;29527;55.766;37.570;2023-05-07T11:45:46;13.95;;;2.10;;
37791;SDS011;29527;55.766;37.570;2023-05-07T11:48:12;14.38;;;2.45;;
37791;SDS011;29527;55.766;37.570;2023-05-07T11:50:51;5.60;;;1.63;;
37791;SDS011;29527;55.766;37.570;2023-05-07T11:53:18;10.48;;;1.60;;
37791;SDS011;29527;55.766;37.570;2023-05-07T11:55:45;2.92;;;1.77;;
37791;SDS011;29527;55.766;37.570;2023-05-07T11:58:11;3.35;;;1.55;;
37791;SDS011;29527;55.766;37.570;2023-05-07T12:00:38;7.07;;;1.50;;
37791;SDS011;29527;55.766;37.570;2023-05-07T12:03:04;2.38;;;1.42;;
37791;SDS011;29527;55.766;37.570;2023-05-07T12:05:30;1.92;;;1.30;;
37791;SDS011;29527;55.766;37.570;2023-05-07T12:07:57;2.63;;;1.67;;
37791;SDS011;29527;55.766;37.570;2023-05-07T12:10:22;3.08;;;2.03;;
37791;SDS011;29527;55.766;37.570;2023-05-07T12:12:50;1.98;;;1.77;;
37791;SDS011;29527;55.766;37.570;2023-05-07T12:15:16;4.32;;;1.40;;
37791;SDS011;29527;55.766;37.570;2023-05-07T12:17:42;2.55;;;1.77;;
37791;SDS011;29527;55.766;37.570;2023-05-07T12:20:08;2.63;;;1.58;;
37791;SDS011;29527;55.766;37.570;2023-05-07T12:22:35;4.88;;;1.60;;
37791;SDS011;29527;55.766;37.570;2023-05-07T12:25:01;6.82;;;1.80;;
37791;SDS011;29527;55.766;37.570;2023-05-07T12:27:31;2.47;;;1.52;;
37791;SDS011;29527;55.766;37.570;2023-05-07T12:29:57;3.92;;;1.10;;
37791;SDS011;29527;55.766;37.570;2023-05-07T12:32:23;2.72;;;1.15;;
37791;SDS011;29527;55.766;37.570;2023-05-07T12:34:49;2.88;;;1.02;;
37791;SDS011;29527;55.766;37.570;2023-05-07T12:37:16;3.90;;;1.10;;
37791;SDS011;29527;55.766;37.570;2023-05-07T12:39:48;1.40;;;1.20;;
37791;SDS011;29527;55.766;37.570;2023-05-07T12:42:19;2.88;;;1.05;;
37791;SDS011;29527;55.766;37.570;2023-05-07T12:44:50;4.20;;;1.15;;
37791;SDS011;29527;55.766;37.570;2023-05-07T12:47:17;1.55;;;1.10;;
37791;SDS011;29527;55.766;37.570;2023-05-07T12:49:42;5.82;;;1.60;;
37791;SDS011;29527;55.766;37.570;2023-05-07T12:52:11;1.48;;;1.33;;
37791;SDS011;29527;55.766;37.570;2023-05-07T12:54:37;2.85;;;1.50;;
37791;SDS011;29527;55.766;37.570;2023-05-07T12:57:07;3.75;;;1.73;;
37791;SDS011;29527;55.766;37.570;2023-05-07T12:59:37;3.20;;;1.35;;
37791;SDS011;29527;55.766;37.570;2023-05-07T13:02:04;1.90;;;1.20;;
37791;SDS011;29527;55.766;37.570;2023-05-07T13:04:30;4.45;;;1.50;;
37791;SDS011;29527;55.766;37.570;2023-05-07T13:06:56;4.72;;;1.50;;
37791;SDS011;29527;55.766;37.570;2023-05-07T13:09:22;2.20;;;1.50;;
37791;SDS011;29527;55.766;37.570;2023-05-07T13:11:47;4.97;;;1.40;;
37791;SDS011;29527;55.766;37.570;2023-05-07T13:14:13;6.32;;;1.88;;
37791;SDS011;29527;55.766;37.570;2023-05-07T13:16:38;5.05;;;1.40;;
37791;SDS011;29527;55.766;37.570;2023-05-07T13:19:04;3.15;;;1.52;;
37791;SDS011;29527;55.766;37.570;2023-05-07T13:21:30;4.75;;;1.70;;
37791;SDS011;29527;55.766;37.570;2023-05-07T13:23:58;3.75;;;1.80;;
37791;SDS011;29527;55.766;37.570;2023-05-07T13:26:24;1.95;;;1.60;;
37791;SDS011;29527;55.766;37.570;2023-05-07T13:28:51;7.22;;;1.92;;
37791;SDS011;29527;55.766;37.570;2023-05-07T13:31:17;3.20;;;1.40;;
37791;SDS011;29527;55.766;37.570;2023-05-07T13:33:43;3.45;;;1.50;;
37791;SDS011;29527;55.766;37.570;2023-05-07T13:36:08;3.72;;;1.48;;
37791;SDS011;29527;55.766;37.570;2023-05-07T13:38:34;2.22;;;1.45;;
37791;SDS011;29527;55.766;37.570;2023-05-07T13:41:00;3.35;;;1.38;;
37791;SDS011;29527;55.766;37.570;2023-05-07T13:43:25;6.38;;;1.80;;
37791;SDS011;29527;55.766;37.570;2023-05-07T13:45:51;3.38;;;1.45;;
37791;SDS011;29527;55.766;37.570;2023-05-07T13:48:16;1.98;;;1.48;;
37791;SDS011;29527;55.766;37.570;2023-05-07T13:50:42;2.58;;;1.67;;
37791;SDS011;29527;55.766;37.570;2023-05-07T13:53:08;3.75;;;1.55;;
37791;SDS011;29527;55.766;37.570;2023-05-07T13:55:33;3.83;;;1.83;;
37791;SDS011;29527;55.766;37.570;2023-05-07T13:58:00;2.38;;;1.75;;
37791;SDS011;29527;55.766;37.570;2023-05-07T14:00:27;3.05;;;1.85;;
37791;SDS011;29527;55.766;37.570;2023-05-07T14:02:53;2.88;;;1.58;;
37791;SDS011;29527;55.766;37.570;2023-05-07T14:05:19;2.85;;;1.60;;
37791;SDS011;29527;55.766;37.570;2023-05-07T14:07:45;4.07;;;1.67;;
37791;SDS011;29527;55.766;37.570;2023-05-07T14:10:12;2.63;;;1.70;;
37791;SDS011;29527;55.766;37.570;2023-05-07T14:12:38;4.05;;;1.80;;
37791;SDS011;29527;55.766;37.570;2023-05-07T14:15:04;3.38;;;1.65;;
37791;SDS011;29527;55.766;37.570;2023-05-07T14:17:32;2.38;;;1.80;;
37791;SDS011;29527;55.766;37.570;2023-05-07T14:19:57;5.40;;;1.70;;
37791;SDS011;29527;55.766;37.570;2023-05-07T14:22:23;2.95;;;1.70;;
37791;SDS011;29527;55.766;37.570;2023-05-07T14:24:49;2.97;;;1.55;;
37791;SDS011;29527;55.766;37.570;2023-05-07T14:27:15;3.88;;;1.38;;
37791;SDS011;29527;55.766;37.570;2023-05-07T14:29:41;1.83;;;1.50;;
37791;SDS011;29527;55.766;37.570;2023-05-07T14:32:07;2.53;;;1.50;;
37791;SDS011;29527;55.766;37.570;2023-05-07T14:34:33;5.40;;;1.95;;
37791;SDS011;29527;55.766;37.570;2023-05-07T14:36:59;4.22;;;1.63;;
37791;SDS011;29527;55.766;37.570;2023-05-07T14:39:25;2.83;;;1.67;;
37791;SDS011;29527;55.766;37.570;2023-05-07T14:41:51;3.05;;;1.80;;